sensor_id;sensor_type;location;lat;lon;timestamp;pressure;altitude;pressure_sealevel;temperature;humidity
48041;BME280;33815;48.386;11.738;2022-09-09T00:02:12;96333.94;;;9.90;100.00
48041;BME280;33815;48.386;11.738;2022-09-09T00:04:40;96331.88;;;9.93;100.00
48041;BME280;33815;48.386;11.738;2022-09-09T00:10:05;96338.50;;;9.88;100.00
48041;BME280;33815;48.386;11.738;2022-09-09T00:12:44;96329.38;;;9.84;100.00
48041;BME280;33815;48.386;11.738;2022-09-09T00:15:19;96329.38;;;9.84;100.00
48041;BME280;33815;48.386;11.738;2022-09-09T00:18:01;96330.63;;;9.80;100.00
48041;BME280;33815;48.386;11.738;2022-09-09T00:20:39;96340.66;;;9.74;100.00
48041;BME280;33815;48.386;11.738;2022-09-09T00:23:12;96337.03;;;9.67;100.00
48041;BME280;33815;48.386;11.738;2022-09-09T00:28:23;96326.78;;;9.66;100.00
48041;BME280;33815;48.386;11.738;2022-09-09T00:30:50;96308.66;;;9.56;100.00
48041;BME280;33815;48.386;11.738;2022-09-09T00:33:18;96331.84;;;9.67;100.00
48041;BME280;33815;48.386;11.738;2022-09-09T00:35:49;96311.97;;;9.66;100.00
48041;BME280;33815;48.386;11.738;2022-09-09T00:38:32;96331.97;;;9.84;100.00
48041;BME280;33815;48.386;11.738;2022-09-09T00:41:04;96325.59;;;9.78;100.00
48041;BME280;33815;48.386;11.738;2022-09-09T00:43:35;96331.38;;;9.72;100.00
48041;BME280;33815;48.386;11.738;2022-09-09T00:46:38;96329.06;;;9.69;100.00
48041;BME280;33815;48.386;11.738;2022-09-09T00:49:23;96329.69;;;9.63;100.00
48041;BME280;33815;48.386;11.738;2022-09-09T00:57:27;96321.75;;;9.46;100.00
48041;BME280;33815;48.386;11.738;2022-09-09T01:08:01;96321.75;;;9.46;100.00
48041;BME280;33815;48.386;11.738;2022-09-09T01:10:50;96316.22;;;9.49;100.00
48041;BME280;33815;48.386;11.738;2022-09-09T01:13:33;96317.00;;;9.41;100.00
48041;BME280;33815;48.386;11.738;2022-09-09T01:16:01;96320.94;;;9.46;100.00
48041;BME280;33815;48.386;11.738;2022-09-09T01:18:34;96306.59;;;9.41;100.00
48041;BME280;33815;48.386;11.738;2022-09-09T01:21:12;96306.66;;;9.50;100.00
48041;BME280;33815;48.386;11.738;2022-09-09T01:26:35;96328.19;;;9.60;100.00
48041;BME280;33815;48.386;11.738;2022-09-09T01:29:02;96328.81;;;9.54;100.00
48041;BME280;33815;48.386;11.738;2022-09-09T01:31:54;96329.09;;;9.51;100.00
48041;BME280;33815;48.386;11.738;2022-09-09T01:34:20;96329.53;;;9.46;100.00
48041;BME280;33815;48.386;11.738;2022-09-09T01:37:02;96334.22;;;9.42;100.00
48041;BME280;33815;48.386;11.738;2022-09-09T01:39:30;96330.31;;;9.38;100.00
48041;BME280;33815;48.386;11.738;2022-09-09T01:41:56;96310.06;;;9.32;100.00
48041;BME280;33815;48.386;11.738;2022-09-09T01:44:22;96321.81;;;9.36;100.00
48041;BME280;33815;48.386;11.738;2022-09-09T01:46:47;96321.50;;;9.39;100.00
48041;BME280;33815;48.386;11.738;2022-09-09T01:49:13;96333.94;;;9.46;100.00
48041;BME280;33815;48.386;11.738;2022-09-09T01:51:40;96336.91;;;9.51;100.00
48041;BME280;33815;48.386;11.738;2022-09-09T01:54:07;96330.56;;;9.53;100.00
48041;BME280;33815;48.386;11.738;2022-09-09T01:56:47;96339.56;;;9.59;100.00
48041;BME280;33815;48.386;11.738;2022-09-09T02:02:20;96335.31;;;9.58;100.00
48041;BME280;33815;48.386;11.738;2022-09-09T02:04:54;96344.63;;;9.60;100.00
48041;BME280;33815;48.386;11.738;2022-09-09T02:07:37;96336.31;;;9.57;100.00
48041;BME280;33815;48.386;11.738;2022-09-09T02:10:15;96341.59;;;9.65;100.00
48041;BME280;33815;48.386;11.738;2022-09-09T02:12:45;96332.28;;;9.63;100.00
48041;BME280;33815;48.386;11.738;2022-09-09T02:15:17;96331.47;;;9.62;100.00
48041;BME280;33815;48.386;11.738;2022-09-09T02:17:46;96335.03;;;9.61;100.00
48041;BME280;33815;48.386;11.738;2022-09-09T02:20:14;96331.19;;;9.65;100.00
48041;BME280;33815;48.386;11.738;2022-09-09T02:22:43;96333.41;;;9.60;100.00
48041;BME280;33815;48.386;11.738;2022-09-09T02:25:11;96328.72;;;9.64;100.00
48041;BME280;33815;48.386;11.738;2022-09-09T02:27:39;96322.69;;;9.63;100.00
48041;BME280;33815;48.386;11.738;2022-09-09T02:30:06;96326.16;;;9.72;100.00
48041;BME280;33815;48.386;11.738;2022-09-09T02:32:34;96320.69;;;9.75;100.00
48041;BME280;33815;48.386;11.738;2022-09-09T02:35:05;96334.56;;;9.84;100.00
48041;BME280;33815;48.386;11.738;2022-09-09T02:37:35;96327.50;;;9.76;100.00
48041;BME280;33815;48.386;11.738;2022-09-09T02:40:06;96330.72;;;9.70;100.00
48041;BME280;33815;48.386;11.738;2022-09-09T02:42:38;96316.00;;;9.60;100.00
48041;BME280;33815;48.386;11.738;2022-09-09T02:45:04;96300.69;;;9.57;100.00
48041;BME280;33815;48.386;11.738;2022-09-09T02:47:34;96308.34;;;9.59;100.00
48041;BME280;33815;48.386;11.738;2022-09-09T02:50:20;96308.19;;;9.60;100.00
48041;BME280;33815;48.386;11.738;2022-09-09T02:55:38;96311.97;;;9.66;100.00
48041;BME280;33815;48.386;11.738;2022-09-09T02:58:07;96304.41;;;9.55;100.00
48041;BME280;33815;48.386;11.738;2022-09-09T03:00:33;96308.72;;;9.64;100.00
48041;BME280;33815;48.386;11.738;2022-09-09T03:03:02;96295.94;;;9.53;100.00
48041;BME280;33815;48.386;11.738;2022-09-09T03:05:28;96294.91;;;9.46;100.00
48041;BME280;33815;48.386;11.738;2022-09-09T03:07:53;96301.09;;;9.45;100.00
48041;BME280;33815;48.386;11.738;2022-09-09T03:10:18;96301.38;;;9.41;100.00
48041;BME280;33815;48.386;11.738;2022-09-09T03:12:44;96303.75;;;9.35;100.00
48041;BME280;33815;48.386;11.738;2022-09-09T03:15:09;96295.72;;;9.28;100.00
48041;BME280;33815;48.386;11.738;2022-09-09T03:17:35;96302.44;;;9.31;100.00
48041;BME280;33815;48.386;11.738;2022-09-09T03:20:02;96304.28;;;9.38;100.00
48041;BME280;33815;48.386;11.738;2022-09-09T03:22:27;96297.75;;;9.34;100.00
48041;BME280;33815;48.386;11.738;2022-09-09T03:24:52;96306.94;;;9.47;100.00
48041;BME280;33815;48.386;11.738;2022-09-09T03:27:18;96295.28;;;9.51;100.00
48041;BME280;33815;48.386;11.738;2022-09-09T03:29:44;96299.97;;;9.65;100.00
48041;BME280;33815;48.386;11.738;2022-09-09T03:32:10;96274.91;;;9.64;100.00
48041;BME280;33815;48.386;11.738;2022-09-09T03:34:35;96299.78;;;9.85;100.00
48041;BME280;33815;48.386;11.738;2022-09-09T03:37:04;96301.75;;;9.91;100.00
48041;BME280;33815;48.386;11.738;2022-09-09T03:39:30;96284.50;;;9.90;100.00
48041;BME280;33815;48.386;11.738;2022-09-09T03:41:55;96292.66;;;9.95;100.00
48041;BME280;33815;48.386;11.738;2022-09-09T03:44:21;96303.28;;;10.02;100.00
48041;BME280;33815;48.386;11.738;2022-09-09T03:46:46;96298.41;;;10.07;100.00
48041;BME280;33815;48.386;11.738;2022-09-09T03:49:11;96292.78;;;10.11;100.00
48041;BME280;33815;48.386;11.738;2022-09-09T03:51:37;96295.56;;;10.18;100.00
48041;BME280;33815;48.386;11.738;2022-09-09T03:54:03;96299.31;;;10.24;100.00
48041;BME280;33815;48.386;11.738;2022-09-09T03:56:30;96296.44;;;10.27;100.00
48041;BME280;33815;48.386;11.738;2022-09-09T03:58:56;96281.41;;;10.21;100.00
48041;BME280;33815;48.386;11.738;2022-09-09T04:01:22;96288.78;;;10.34;100.00
48041;BME280;33815;48.386;11.738;2022-09-09T04:03:47;96284.72;;;10.31;100.00
48041;BME280;33815;48.386;11.738;2022-09-09T04:06:13;96276.41;;;10.27;100.00
48041;BME280;33815;48.386;11.738;2022-09-09T04:08:40;96288.06;;;10.41;100.00
48041;BME280;33815;48.386;11.738;2022-09-09T04:11:06;96286.25;;;10.42;100.00
48041;BME280;33815;48.386;11.738;2022-09-09T04:13:37;96283.16;;;10.38;100.00
48041;BME280;33815;48.386;11.738;2022-09-09T04:16:05;96277.06;;;10.29;100.00
48041;BME280;33815;48.386;11.738;2022-09-09T04:18:31;96267.25;;;10.23;100.00
48041;BME280;33815;48.386;11.738;2022-09-09T04:20:57;96281.44;;;10.29;100.00
48041;BME280;33815;48.386;11.738;2022-09-09T04:23:24;96288.09;;;10.23;100.00
48041;BME280;33815;48.386;11.738;2022-09-09T04:25:52;96264.94;;;10.12;100.00
48041;BME280;33815;48.386;11.738;2022-09-09T04:28:20;96286.63;;;10.21;100.00
48041;BME280;33815;48.386;11.738;2022-09-09T04:30:46;96296.69;;;10.16;100.00
48041;BME280;33815;48.386;11.738;2022-09-09T04:33:13;96298.63;;;10.14;100.00
48041;BME280;33815;48.386;11.738;2022-09-09T04:35:39;96301.22;;;10.14;100.00
48041;BME280;33815;48.386;11.738;2022-09-09T04:38:08;96282.47;;;10.02;100.00
48041;BME280;33815;48.386;11.738;2022-09-09T04:40:34;96281.34;;;10.12;100.00
48041;BME280;33815;48.386;11.738;2022-09-09T04:43:01;96293.09;;;10.17;100.00
48041;BME280;33815;48.386;11.738;2022-09-09T04:45:30;96285.44;;;10.15;100.00
48041;BME280;33815;48.386;11.738;2022-09-09T04:47:56;96278.91;;;10.11;100.00
48041;BME280;33815;48.386;11.738;2022-09-09T04:50:21;96271.22;;;10.01;100.00
48041;BME280;33815;48.386;11.738;2022-09-09T04:52:46;96247.41;;;9.88;100.00
48041;BME280;33815;48.386;11.738;2022-09-09T04:55:12;96261.13;;;9.98;100.00
48041;BME280;33815;48.386;11.738;2022-09-09T04:57:38;96254.09;;;9.99;100.00
48041;BME280;33815;48.386;11.738;2022-09-09T05:00:04;96258.34;;;10.00;100.00
48041;BME280;33815;48.386;11.738;2022-09-09T05:02:29;96275.81;;;10.07;100.00
48041;BME280;33815;48.386;11.738;2022-09-09T05:04:55;96273.06;;;10.09;100.00
48041;BME280;33815;48.386;11.738;2022-09-09T05:07:21;96283.00;;;10.14;100.00
48041;BME280;33815;48.386;11.738;2022-09-09T05:09:46;96281.69;;;10.09;100.00
48041;BME280;33815;48.386;11.738;2022-09-09T05:12:13;96289.00;;;10.06;100.00
48041;BME280;33815;48.386;11.738;2022-09-09T05:14:38;96277.69;;;9.97;100.00
48041;BME280;33815;48.386;11.738;2022-09-09T05:17:03;96279.66;;;9.95;100.00
48041;BME280;33815;48.386;11.738;2022-09-09T05:19:29;96294.22;;;10.06;100.00
48041;BME280;33815;48.386;11.738;2022-09-09T05:21:56;96282.75;;;9.99;100.00
48041;BME280;33815;48.386;11.738;2022-09-09T05:24:21;96270.56;;;9.99;100.00
48041;BME280;33815;48.386;11.738;2022-09-09T05:26:48;96274.50;;;10.03;100.00
48041;BME280;33815;48.386;11.738;2022-09-09T05:29:13;96290.44;;;10.08;100.00
48041;BME280;33815;48.386;11.738;2022-09-09T05:31:39;96290.59;;;10.07;100.00
48041;BME280;33815;48.386;11.738;2022-09-09T05:34:04;96292.09;;;10.09;100.00
48041;BME280;33815;48.386;11.738;2022-09-09T05:36:29;96273.66;;;10.03;100.00
48041;BME280;33815;48.386;11.738;2022-09-09T05:38:55;96289.09;;;10.31;100.00
48041;BME280;33815;48.386;11.738;2022-09-09T05:41:20;96294.28;;;10.22;100.00
48041;BME280;33815;48.386;11.738;2022-09-09T05:43:46;96290.16;;;10.11;100.00
48041;BME280;33815;48.386;11.738;2022-09-09T05:46:18;96300.66;;;10.28;100.00
48041;BME280;33815;48.386;11.738;2022-09-09T05:48:45;96265.47;;;10.24;100.00
48041;BME280;33815;48.386;11.738;2022-09-09T05:51:18;96305.88;;;10.62;100.00
48041;BME280;33815;48.386;11.738;2022-09-09T05:53:44;96304.44;;;10.68;100.00
48041;BME280;33815;48.386;11.738;2022-09-09T05:56:15;96306.41;;;10.74;100.00
48041;BME280;33815;48.386;11.738;2022-09-09T05:58:40;96302.69;;;10.85;100.00
48041;BME280;33815;48.386;11.738;2022-09-09T06:01:13;96297.19;;;10.96;100.00
48041;BME280;33815;48.386;11.738;2022-09-09T06:03:41;96302.44;;;11.05;100.00
48041;BME280;33815;48.386;11.738;2022-09-09T06:06:08;96303.91;;;11.16;100.00
48041;BME280;33815;48.386;11.738;2022-09-09T06:08:35;96307.84;;;11.20;100.00
48041;BME280;33815;48.386;11.738;2022-09-09T06:11:07;96299.53;;;11.32;100.00
48041;BME280;33815;48.386;11.738;2022-09-09T06:13:33;96294.00;;;11.44;100.00
48041;BME280;33815;48.386;11.738;2022-09-09T06:15:58;96294.16;;;11.42;100.00
48041;BME280;33815;48.386;11.738;2022-09-09T06:18:25;96303.94;;;11.57;100.00
48041;BME280;33815;48.386;11.738;2022-09-09T06:23:24;96292.38;;;11.84;100.00
48041;BME280;33815;48.386;11.738;2022-09-09T06:25:50;96288.09;;;11.91;100.00
48041;BME280;33815;48.386;11.738;2022-09-09T06:28:16;96293.53;;;11.98;100.00
48041;BME280;33815;48.386;11.738;2022-09-09T06:30:42;96304.09;;;12.13;100.00
48041;BME280;33815;48.386;11.738;2022-09-09T06:33:07;96293.28;;;12.16;100.00
48041;BME280;33815;48.386;11.738;2022-09-09T06:35:32;96296.53;;;12.34;100.00
48041;BME280;33815;48.386;11.738;2022-09-09T06:37:58;96286.53;;;12.38;100.00
48041;BME280;33815;48.386;11.738;2022-09-09T06:40:24;96288.97;;;12.48;100.00
48041;BME280;33815;48.386;11.738;2022-09-09T06:42:49;96289.72;;;12.57;100.00
48041;BME280;33815;48.386;11.738;2022-09-09T06:45:14;96295.28;;;12.62;100.00
48041;BME280;33815;48.386;11.738;2022-09-09T06:47:40;96300.81;;;12.67;100.00
48041;BME280;33815;48.386;11.738;2022-09-09T06:50:06;96301.09;;;12.72;100.00
48041;BME280;33815;48.386;11.738;2022-09-09T06:52:32;96297.16;;;12.76;100.00
48041;BME280;33815;48.386;11.738;2022-09-09T06:54:58;96303.69;;;12.80;100.00
48041;BME280;33815;48.386;11.738;2022-09-09T06:57:23;96319.66;;;12.94;100.00
48041;BME280;33815;48.386;11.738;2022-09-09T06:59:49;96299.09;;;12.91;100.00
48041;BME280;33815;48.386;11.738;2022-09-09T07:02:14;96317.81;;;13.02;100.00
48041;BME280;33815;48.386;11.738;2022-09-09T07:04:40;96314.06;;;12.97;100.00
48041;BME280;33815;48.386;11.738;2022-09-09T07:07:05;96330.88;;;13.02;100.00
48041;BME280;33815;48.386;11.738;2022-09-09T07:09:30;96344.94;;;13.01;100.00
48041;BME280;33815;48.386;11.738;2022-09-09T07:11:56;96375.31;;;13.11;100.00
48041;BME280;33815;48.386;11.738;2022-09-09T07:14:24;96392.84;;;13.10;100.00
48041;BME280;33815;48.386;11.738;2022-09-09T07:16:49;96389.56;;;13.08;100.00
48041;BME280;33815;48.386;11.738;2022-09-09T07:19:15;96379.63;;;13.03;100.00
48041;BME280;33815;48.386;11.738;2022-09-09T07:21:41;96380.16;;;12.91;100.00
48041;BME280;33815;48.386;11.738;2022-09-09T07:24:06;96389.31;;;12.95;100.00
48041;BME280;33815;48.386;11.738;2022-09-09T07:26:36;96381.41;;;13.03;100.00
48041;BME280;33815;48.386;11.738;2022-09-09T07:29:03;96381.25;;;13.05;100.00
48041;BME280;33815;48.386;11.738;2022-09-09T07:31:31;96395.09;;;13.13;100.00
48041;BME280;33815;48.386;11.738;2022-09-09T07:33:57;96387.78;;;13.09;100.00
48041;BME280;33815;48.386;11.738;2022-09-09T07:36:25;96400.69;;;13.10;100.00
48041;BME280;33815;48.386;11.738;2022-09-09T07:38:53;96411.63;;;13.14;100.00
48041;BME280;33815;48.386;11.738;2022-09-09T07:41:22;96400.00;;;13.16;100.00
48041;BME280;33815;48.386;11.738;2022-09-09T07:43:49;96399.66;;;13.19;100.00
48041;BME280;33815;48.386;11.738;2022-09-09T07:46:17;96399.00;;;13.17;100.00
48041;BME280;33815;48.386;11.738;2022-09-09T07:48:50;96409.91;;;13.29;100.00
48041;BME280;33815;48.386;11.738;2022-09-09T07:51:18;96418.59;;;13.30;100.00
48041;BME280;33815;48.386;11.738;2022-09-09T07:53:46;96424.97;;;13.27;100.00
48041;BME280;33815;48.386;11.738;2022-09-09T07:56:16;96421.25;;;13.22;100.00
48041;BME280;33815;48.386;11.738;2022-09-09T07:58:42;96397.00;;;13.28;100.00
48041;BME280;33815;48.386;11.738;2022-09-09T08:01:15;96390.78;;;13.29;100.00
48041;BME280;33815;48.386;11.738;2022-09-09T08:03:43;96405.47;;;13.38;100.00
48041;BME280;33815;48.386;11.738;2022-09-09T08:06:09;96395.34;;;13.35;100.00
48041;BME280;33815;48.386;11.738;2022-09-09T08:08:36;96387.31;;;13.28;100.00
48041;BME280;33815;48.386;11.738;2022-09-09T08:11:09;96387.22;;;13.53;100.00
48041;BME280;33815;48.386;11.738;2022-09-09T08:13:36;96398.75;;;13.67;100.00
48041;BME280;33815;48.386;11.738;2022-09-09T08:16:11;96393.78;;;13.80;100.00
48041;BME280;33815;48.386;11.738;2022-09-09T08:18:37;96392.69;;;13.90;100.00
48041;BME280;33815;48.386;11.738;2022-09-09T08:21:12;96385.13;;;13.95;100.00
48041;BME280;33815;48.386;11.738;2022-09-09T08:23:41;96386.97;;;14.09;100.00
48041;BME280;33815;48.386;11.738;2022-09-09T08:26:10;96391.84;;;14.12;100.00
48041;BME280;33815;48.386;11.738;2022-09-09T08:28:37;96388.06;;;14.15;100.00
48041;BME280;33815;48.386;11.738;2022-09-09T08:31:23;96388.91;;;14.15;100.00
48041;BME280;33815;48.386;11.738;2022-09-09T08:33:49;96395.06;;;14.22;100.00
48041;BME280;33815;48.386;11.738;2022-09-09T08:36:17;96400.50;;;14.21;100.00
48041;BME280;33815;48.386;11.738;2022-09-09T08:38:43;96414.59;;;14.35;100.00
48041;BME280;33815;48.386;11.738;2022-09-09T08:44:06;96432.94;;;14.35;100.00
48041;BME280;33815;48.386;11.738;2022-09-09T08:46:35;96422.81;;;14.17;100.00
48041;BME280;33815;48.386;11.738;2022-09-09T08:49:21;96419.63;;;14.21;100.00
48041;BME280;33815;48.386;11.738;2022-09-09T08:51:53;96419.22;;;14.33;100.00
48041;BME280;33815;48.386;11.738;2022-09-09T08:54:21;96416.63;;;14.48;100.00
48041;BME280;33815;48.386;11.738;2022-09-09T08:56:47;96416.19;;;14.59;100.00
48041;BME280;33815;48.386;11.738;2022-09-09T08:59:16;96408.16;;;14.76;100.00
48041;BME280;33815;48.386;11.738;2022-09-09T09:01:54;96411.25;;;14.94;100.00
48041;BME280;33815;48.386;11.738;2022-09-09T09:12:54;96423.66;;;15.73;100.00
48041;BME280;33815;48.386;11.738;2022-09-09T09:15:23;96412.75;;;15.91;100.00
48041;BME280;33815;48.386;11.738;2022-09-09T09:17:50;96407.75;;;15.97;100.00
48041;BME280;33815;48.386;11.738;2022-09-09T09:20:17;96424.69;;;16.16;100.00
48041;BME280;33815;48.386;11.738;2022-09-09T09:22:51;96418.50;;;16.02;100.00
48041;BME280;33815;48.386;11.738;2022-09-09T09:25:25;96406.66;;;16.34;100.00
48041;BME280;33815;48.386;11.738;2022-09-09T09:28:01;96390.63;;;16.29;100.00
48041;BME280;33815;48.386;11.738;2022-09-09T09:30:42;96390.88;;;16.34;100.00
48041;BME280;33815;48.386;11.738;2022-09-09T09:33:34;96400.91;;;16.24;100.00
48041;BME280;33815;48.386;11.738;2022-09-09T09:36:02;96402.69;;;16.45;100.00
48041;BME280;33815;48.386;11.738;2022-09-09T09:38:29;96398.94;;;16.33;100.00
48041;BME280;33815;48.386;11.738;2022-09-09T09:40:55;96408.56;;;16.19;100.00
48041;BME280;33815;48.386;11.738;2022-09-09T09:43:29;96411.25;;;16.04;100.00
48041;BME280;33815;48.386;11.738;2022-09-09T09:45:55;96410.13;;;16.13;100.00
48041;BME280;33815;48.386;11.738;2022-09-09T09:48:23;96400.97;;;16.31;100.00
48041;BME280;33815;48.386;11.738;2022-09-09T09:51:01;96407.19;;;16.51;100.00
48041;BME280;33815;48.386;11.738;2022-09-09T09:53:32;96414.63;;;16.76;100.00
48041;BME280;33815;48.386;11.738;2022-09-09T09:56:01;96411.53;;;16.66;100.00
48041;BME280;33815;48.386;11.738;2022-09-09T09:58:30;96409.50;;;16.39;100.00
48041;BME280;33815;48.386;11.738;2022-09-09T10:00:59;96421.44;;;16.64;100.00
48041;BME280;33815;48.386;11.738;2022-09-09T10:03:30;96423.53;;;16.75;100.00
48041;BME280;33815;48.386;11.738;2022-09-09T10:05:56;96422.31;;;16.77;100.00
48041;BME280;33815;48.386;11.738;2022-09-09T10:08:26;96418.47;;;17.08;100.00
48041;BME280;33815;48.386;11.738;2022-09-09T10:11:27;96428.06;;;17.23;100.00
48041;BME280;33815;48.386;11.738;2022-09-09T10:17:06;96431.69;;;17.70;100.00
48041;BME280;33815;48.386;11.738;2022-09-09T10:19:36;96426.41;;;17.77;100.00
48041;BME280;33815;48.386;11.738;2022-09-09T10:28:10;96423.22;;;17.26;100.00
48041;BME280;33815;48.386;11.738;2022-09-09T10:36:18;96411.91;;;16.91;100.00
48041;BME280;33815;48.386;11.738;2022-09-09T10:38:53;96423.53;;;17.03;100.00
48041;BME280;33815;48.386;11.738;2022-09-09T10:47:14;96430.47;;;17.73;100.00
48041;BME280;33815;48.386;11.738;2022-09-09T10:50:12;96418.97;;;17.94;100.00
48041;BME280;33815;48.386;11.738;2022-09-09T10:55:38;96410.66;;;18.04;100.00
48041;BME280;33815;48.386;11.738;2022-09-09T10:58:05;96426.69;;;18.02;99.94
48041;BME280;33815;48.386;11.738;2022-09-09T11:00:42;96417.50;;;17.78;100.00
48041;BME280;33815;48.386;11.738;2022-09-09T11:03:22;96419.41;;;17.97;100.00
48041;BME280;33815;48.386;11.738;2022-09-09T11:05:54;96415.13;;;18.23;100.00
48041;BME280;33815;48.386;11.738;2022-09-09T11:08:26;96417.59;;;18.45;100.00
48041;BME280;33815;48.386;11.738;2022-09-09T11:11:27;96421.22;;;18.44;100.00
48041;BME280;33815;48.386;11.738;2022-09-09T11:13:59;96423.25;;;18.62;99.28
48041;BME280;33815;48.386;11.738;2022-09-09T11:16:39;96416.97;;;18.49;99.58
48041;BME280;33815;48.386;11.738;2022-09-09T11:19:15;96408.84;;;18.58;99.38
48041;BME280;33815;48.386;11.738;2022-09-09T11:21:49;96400.88;;;18.71;96.98
48041;BME280;33815;48.386;11.738;2022-09-09T11:24:30;96416.31;;;18.81;96.09
48041;BME280;33815;48.386;11.738;2022-09-09T11:27:12;96405.16;;;18.86;98.22
48041;BME280;33815;48.386;11.738;2022-09-09T11:35:32;96400.03;;;19.49;92.68
48041;BME280;33815;48.386;11.738;2022-09-09T11:38:18;96401.94;;;19.81;91.75
48041;BME280;33815;48.386;11.738;2022-09-09T11:40:45;96396.94;;;20.30;90.57
48041;BME280;33815;48.386;11.738;2022-09-09T11:43:14;96390.66;;;20.49;88.44
48041;BME280;33815;48.386;11.738;2022-09-09T11:45:41;96385.06;;;20.32;82.03
48041;BME280;33815;48.386;11.738;2022-09-09T11:48:44;96383.63;;;20.36;84.39
48041;BME280;33815;48.386;11.738;2022-09-09T11:53:56;96383.09;;;20.28;84.54
48041;BME280;33815;48.386;11.738;2022-09-09T11:59:01;96392.09;;;20.45;84.01
48041;BME280;33815;48.386;11.738;2022-09-09T12:01:30;96381.44;;;20.52;83.42
48041;BME280;33815;48.386;11.738;2022-09-09T12:04:11;96389.03;;;20.48;81.47
48041;BME280;33815;48.386;11.738;2022-09-09T12:06:43;96389.88;;;20.42;84.79
48041;BME280;33815;48.386;11.738;2022-09-09T12:09:25;96387.59;;;20.71;80.63
48041;BME280;33815;48.386;11.738;2022-09-09T12:11:52;96370.47;;;20.30;80.56
48041;BME280;33815;48.386;11.738;2022-09-09T12:14:23;96389.19;;;20.28;81.01
48041;BME280;33815;48.386;11.738;2022-09-09T12:17:09;96381.09;;;20.23;80.11
48041;BME280;33815;48.386;11.738;2022-09-09T12:19:34;96368.66;;;19.98;79.95
48041;BME280;33815;48.386;11.738;2022-09-09T12:22:14;96387.63;;;20.20;79.67
48041;BME280;33815;48.386;11.738;2022-09-09T12:25:00;96390.06;;;20.22;80.41
48041;BME280;33815;48.386;11.738;2022-09-09T12:27:42;96381.47;;;20.27;79.29
48041;BME280;33815;48.386;11.738;2022-09-09T12:30:12;96378.88;;;20.20;78.95
48041;BME280;33815;48.386;11.738;2022-09-09T12:32:39;96376.59;;;20.49;77.39
48041;BME280;33815;48.386;11.738;2022-09-09T12:35:22;96367.91;;;20.60;78.87
48041;BME280;33815;48.386;11.738;2022-09-09T12:37:56;96371.53;;;20.22;79.90
48041;BME280;33815;48.386;11.738;2022-09-09T12:40:30;96361.41;;;20.37;77.78
48041;BME280;33815;48.386;11.738;2022-09-09T12:42:57;96372.88;;;20.06;77.48
48041;BME280;33815;48.386;11.738;2022-09-09T12:45:26;96367.84;;;19.98;78.74
48041;BME280;33815;48.386;11.738;2022-09-09T12:48:04;96363.41;;;19.92;75.63
48041;BME280;33815;48.386;11.738;2022-09-09T12:50:38;96357.59;;;19.76;77.20
48041;BME280;33815;48.386;11.738;2022-09-09T12:53:26;96360.00;;;19.84;77.34
48041;BME280;33815;48.386;11.738;2022-09-09T12:56:00;96358.91;;;19.99;77.79
48041;BME280;33815;48.386;11.738;2022-09-09T12:58:27;96356.41;;;20.29;75.50
48041;BME280;33815;48.386;11.738;2022-09-09T13:00:57;96346.34;;;20.82;74.44
48041;BME280;33815;48.386;11.738;2022-09-09T13:03:23;96344.91;;;21.65;68.46
48041;BME280;33815;48.386;11.738;2022-09-09T13:05:50;96328.84;;;22.02;71.54
48041;BME280;33815;48.386;11.738;2022-09-09T13:08:16;96324.34;;;22.74;65.34
48041;BME280;33815;48.386;11.738;2022-09-09T13:11:01;96316.34;;;22.15;66.47
48041;BME280;33815;48.386;11.738;2022-09-09T13:13:35;96324.19;;;21.98;63.70
48041;BME280;33815;48.386;11.738;2022-09-09T13:16:02;96330.56;;;21.97;67.03
48041;BME280;33815;48.386;11.738;2022-09-09T13:18:31;96326.94;;;21.79;66.52
48041;BME280;33815;48.386;11.738;2022-09-09T13:20:58;96322.41;;;21.56;67.52
48041;BME280;33815;48.386;11.738;2022-09-09T13:23:27;96321.56;;;21.55;66.57
48041;BME280;33815;48.386;11.738;2022-09-09T13:25:59;96305.38;;;21.15;68.84
48041;BME280;33815;48.386;11.738;2022-09-09T13:28:27;96309.81;;;21.02;68.67
48041;BME280;33815;48.386;11.738;2022-09-09T13:31:19;96312.56;;;20.96;68.85
48041;BME280;33815;48.386;11.738;2022-09-09T13:33:45;96315.94;;;21.03;69.93
48041;BME280;33815;48.386;11.738;2022-09-09T13:36:11;96305.91;;;20.75;69.85
48041;BME280;33815;48.386;11.738;2022-09-09T13:41:22;96299.41;;;20.89;71.35
48041;BME280;33815;48.386;11.738;2022-09-09T13:43:50;96293.84;;;20.53;69.34
48041;BME280;33815;48.386;11.738;2022-09-09T13:49:16;96289.06;;;20.25;70.61
48041;BME280;33815;48.386;11.738;2022-09-09T13:51:42;96288.94;;;20.39;70.60
48041;BME280;33815;48.386;11.738;2022-09-09T13:54:10;96288.94;;;20.57;71.61
48041;BME280;33815;48.386;11.738;2022-09-09T13:56:37;96286.44;;;20.99;68.74
48041;BME280;33815;48.386;11.738;2022-09-09T13:59:05;96270.53;;;21.30;70.29
48041;BME280;33815;48.386;11.738;2022-09-09T14:01:31;96272.91;;;21.19;67.38
48041;BME280;33815;48.386;11.738;2022-09-09T14:03:59;96263.22;;;21.13;69.57
48041;BME280;33815;48.386;11.738;2022-09-09T14:06:25;96274.41;;;21.15;68.75
48041;BME280;33815;48.386;11.738;2022-09-09T14:08:50;96263.84;;;21.27;67.26
48041;BME280;33815;48.386;11.738;2022-09-09T14:11:16;96270.47;;;21.18;67.83
48041;BME280;33815;48.386;11.738;2022-09-09T14:13:41;96271.75;;;21.15;68.01
48041;BME280;33815;48.386;11.738;2022-09-09T14:16:06;96254.06;;;20.97;68.69
48041;BME280;33815;48.386;11.738;2022-09-09T14:18:32;96258.53;;;20.97;69.08
48041;BME280;33815;48.386;11.738;2022-09-09T14:20:57;96256.41;;;20.87;69.12
48041;BME280;33815;48.386;11.738;2022-09-09T14:23:24;96276.66;;;20.81;69.04